Terminal Aerodrome Forecast
Issued by NWS

Home | Current Version | Previous Version | Text Only | Print | Product List | Glossary On
Versions: 1 2 3 4 5 6 7 8 9 10 11 12 13 14 15 16 17 18
000
FTUS42 KGSP 261100
TAFAND
TAF
KAND 261137Z 2612/2712 25003KT P6SM FEW120 BKN250
      TEMPO 2612/2613 5SM BR
     FM261700 24007KT P6SM SCT060
     FM270300 25003KT P6SM SCT120 BKN250=

USA.gov is the U.S. government's official web portal to all federal, state and local government web resources and services.